北九州空港の過去48時間の天気

北九州空港 (Kitakyushu)

現在時刻: 10/14 18:27 JST (10/14 09:27 UTC) 以下の時間は現地時間です。

過去48時間のMETAR気象情報
時間 風向 風速(m/s) 視程 気温(℃) 湿度(%) 気圧(hPa) 天気現象
14 18:00 7 10km以上 20 64 1021
14 17:00 7 10km以上 21 64 1020
14 16:00 北北東 8 10km以上 22 60 1019
14 15:00 6 10km以上 22 60 1019
14 14:40 5 10km以上 22 60 1019
14 14:00 西北西 6 10km以上 23 61 1018
14 13:00 6 10km以上 24 47 1019
14 12:00 6 10km以上 23 50 1020
14 11:00 5 10km以上 23 50 1020
14 10:00 6 10km以上 22 50 1021
14 09:00 北北西 3 10km以上 20 56 1021
14 08:00 北西 2 10km以上 18 64 1020
14 07:00 西北西 2 10km以上 17 68 1020
14 06:00 北西 3 10km以上 16 72 1020
14 05:00 北西 2 10km以上 16 77 1020
RJFR 140900Z 36014KT 9999 FEW020 20/13 Q1021
RJFR 140800Z 36014KT 9999 FEW020 SCT030 21/14 Q1020
RJFR 140700Z 02015KT 9999 FEW020 SCT040 22/14 Q1019
RJFR 140600Z 01011KT 9999 FEW025 BKN040 22/14 Q1019
RJFR 140540Z 36010KT 9999 FEW025 BKN040 22/14 Q1019 RMK 1CU025 5CU040 A3009
RJFR 140500Z 30012KT 9999 FEW025 SCT040 23/15 Q1018
RJFR 140400Z 36011KT 9999 FEW025 SCT045 24/12 Q1019
RJFR 140300Z 36011KT 9999 FEW025 23/12 Q1020
RJFR 140200Z 35010KT 9999 FEW025 23/12 Q1020
RJFR 140100Z 35011KT 9999 FEW025 22/11 Q1021
RJFR 140000Z 34006KT 9999 FEW035 20/11 Q1021
RJFR 132300Z 32004KT 280V360 CAVOK 18/11 Q1020
RJFR 132200Z 30004KT 9999 FEW035 17/11 Q1020
RJFR 132100Z 31006KT 9999 FEW035 16/11 Q1020
RJFR 132000Z 31004KT 9999 FEW035 16/12 Q1020